sensor_id;sensor_type;location;lat;lon;timestamp;P1;durP1;ratioP1;P2;durP2;ratioP2
8312;SDS011;4194;43.408;24.626;2022-10-22T00:00:09;13.07;;;10.07;;
8312;SDS011;4194;43.408;24.626;2022-10-22T00:02:37;12.87;;;9.13;;
8312;SDS011;4194;43.408;24.626;2022-10-22T00:05:03;18.63;;;9.23;;
8312;SDS011;4194;43.408;24.626;2022-10-22T00:07:29;16.67;;;10.27;;
8312;SDS011;4194;43.408;24.626;2022-10-22T00:09:55;12.90;;;10.30;;
8312;SDS011;4194;43.408;24.626;2022-10-22T00:12:20;14.17;;;10.57;;
8312;SDS011;4194;43.408;24.626;2022-10-22T00:14:46;11.70;;;10.07;;
8312;SDS011;4194;43.408;24.626;2022-10-22T00:17:12;13.87;;;10.13;;
8312;SDS011;4194;43.408;24.626;2022-10-22T00:19:38;12.97;;;9.53;;
8312;SDS011;4194;43.408;24.626;2022-10-22T00:22:04;12.17;;;9.33;;
8312;SDS011;4194;43.408;24.626;2022-10-22T00:24:31;16.50;;;9.90;;
8312;SDS011;4194;43.408;24.626;2022-10-22T00:26:58;14.07;;;9.97;;
8312;SDS011;4194;43.408;24.626;2022-10-22T00:29:23;12.53;;;8.97;;
8312;SDS011;4194;43.408;24.626;2022-10-22T00:31:49;13.50;;;9.30;;
8312;SDS011;4194;43.408;24.626;2022-10-22T00:34:16;18.10;;;10.57;;
8312;SDS011;4194;43.408;24.626;2022-10-22T00:36:42;11.93;;;10.07;;
8312;SDS011;4194;43.408;24.626;2022-10-22T00:39:08;17.20;;;9.73;;
8312;SDS011;4194;43.408;24.626;2022-10-22T00:41:34;16.30;;;9.73;;
8312;SDS011;4194;43.408;24.626;2022-10-22T00:44:04;16.97;;;9.87;;
8312;SDS011;4194;43.408;24.626;2022-10-22T00:46:30;12.83;;;9.80;;
8312;SDS011;4194;43.408;24.626;2022-10-22T00:48:58;13.43;;;10.40;;
8312;SDS011;4194;43.408;24.626;2022-10-22T00:51:30;15.83;;;9.73;;
8312;SDS011;4194;43.408;24.626;2022-10-22T00:54:01;12.17;;;9.33;;
8312;SDS011;4194;43.408;24.626;2022-10-22T00:56:31;13.43;;;9.53;;
8312;SDS011;4194;43.408;24.626;2022-10-22T00:58:58;13.03;;;9.30;;
8312;SDS011;4194;43.408;24.626;2022-10-22T01:01:26;13.50;;;9.47;;
8312;SDS011;4194;43.408;24.626;2022-10-22T01:03:54;12.30;;;9.17;;
8312;SDS011;4194;43.408;24.626;2022-10-22T01:06:22;13.93;;;8.83;;
8312;SDS011;4194;43.408;24.626;2022-10-22T01:11:39;13.90;;;9.83;;
8312;SDS011;4194;43.408;24.626;2022-10-22T01:17:09;14.17;;;9.80;;
8312;SDS011;4194;43.408;24.626;2022-10-22T01:19:51;14.67;;;10.50;;
8312;SDS011;4194;43.408;24.626;2022-10-22T01:22:39;14.90;;;10.90;;
8312;SDS011;4194;43.408;24.626;2022-10-22T01:30:32;15.98;;;11.82;;
8312;SDS011;4194;43.408;24.626;2022-10-22T01:33:02;12.93;;;10.83;;
8312;SDS011;4194;43.408;24.626;2022-10-22T01:35:33;12.47;;;9.17;;
8312;SDS011;4194;43.408;24.626;2022-10-22T01:38:02;15.33;;;9.60;;
8312;SDS011;4194;43.408;24.626;2022-10-22T01:40:31;17.70;;;10.13;;
8312;SDS011;4194;43.408;24.626;2022-10-22T01:43:06;14.17;;;9.57;;
8312;SDS011;4194;43.408;24.626;2022-10-22T01:45:34;13.13;;;9.23;;
8312;SDS011;4194;43.408;24.626;2022-10-22T02:02:03;15.03;;;10.93;;
8312;SDS011;4194;43.408;24.626;2022-10-22T02:04:43;13.33;;;9.57;;
8312;SDS011;4194;43.408;24.626;2022-10-22T02:07:18;14.37;;;10.50;;
8312;SDS011;4194;43.408;24.626;2022-10-22T02:09:48;16.23;;;10.13;;
8312;SDS011;4194;43.408;24.626;2022-10-22T02:12:16;15.43;;;9.90;;
8312;SDS011;4194;43.408;24.626;2022-10-22T02:14:44;11.80;;;10.07;;
8312;SDS011;4194;43.408;24.626;2022-10-22T02:17:15;15.73;;;10.93;;
8312;SDS011;4194;43.408;24.626;2022-10-22T02:19:57;14.60;;;10.43;;
8312;SDS011;4194;43.408;24.626;2022-10-22T02:22:27;15.83;;;10.10;;
8312;SDS011;4194;43.408;24.626;2022-10-22T02:24:53;12.97;;;10.30;;
8312;SDS011;4194;43.408;24.626;2022-10-22T02:29:51;17.00;;;11.23;;
8312;SDS011;4194;43.408;24.626;2022-10-22T02:32:58;22.17;;;11.67;;
8312;SDS011;4194;43.408;24.626;2022-10-22T02:35:46;16.73;;;11.23;;
8312;SDS011;4194;43.408;24.626;2022-10-22T02:38:13;18.97;;;11.73;;
8312;SDS011;4194;43.408;24.626;2022-10-22T02:40:40;15.03;;;11.00;;
8312;SDS011;4194;43.408;24.626;2022-10-22T02:43:06;16.30;;;11.60;;
8312;SDS011;4194;43.408;24.626;2022-10-22T02:45:32;15.97;;;10.93;;
8312;SDS011;4194;43.408;24.626;2022-10-22T02:47:58;17.47;;;11.83;;
8312;SDS011;4194;43.408;24.626;2022-10-22T02:50:24;19.73;;;12.20;;
8312;SDS011;4194;43.408;24.626;2022-10-22T02:52:50;18.93;;;10.97;;
8312;SDS011;4194;43.408;24.626;2022-10-22T02:55:16;19.43;;;11.40;;
8312;SDS011;4194;43.408;24.626;2022-10-22T02:57:42;14.00;;;10.13;;
8312;SDS011;4194;43.408;24.626;2022-10-22T03:00:08;14.23;;;10.23;;
8312;SDS011;4194;43.408;24.626;2022-10-22T03:02:35;15.47;;;10.63;;
8312;SDS011;4194;43.408;24.626;2022-10-22T03:05:00;14.50;;;10.20;;
8312;SDS011;4194;43.408;24.626;2022-10-22T03:07:26;17.73;;;11.30;;
8312;SDS011;4194;43.408;24.626;2022-10-22T03:09:52;14.07;;;10.43;;
8312;SDS011;4194;43.408;24.626;2022-10-22T03:12:18;15.43;;;10.43;;
8312;SDS011;4194;43.408;24.626;2022-10-22T03:14:43;14.10;;;10.47;;
8312;SDS011;4194;43.408;24.626;2022-10-22T03:17:09;13.77;;;11.20;;
8312;SDS011;4194;43.408;24.626;2022-10-22T03:19:35;19.40;;;10.93;;
8312;SDS011;4194;43.408;24.626;2022-10-22T03:22:04;17.43;;;11.30;;
8312;SDS011;4194;43.408;24.626;2022-10-22T03:24:43;15.47;;;10.83;;
8312;SDS011;4194;43.408;24.626;2022-10-22T03:27:11;18.30;;;11.70;;
8312;SDS011;4194;43.408;24.626;2022-10-22T03:29:40;15.77;;;11.37;;
8312;SDS011;4194;43.408;24.626;2022-10-22T03:32:07;13.47;;;10.17;;
8312;SDS011;4194;43.408;24.626;2022-10-22T03:34:33;13.53;;;11.33;;
8312;SDS011;4194;43.408;24.626;2022-10-22T03:36:59;17.00;;;11.53;;
8312;SDS011;4194;43.408;24.626;2022-10-22T03:39:26;14.70;;;11.33;;
8312;SDS011;4194;43.408;24.626;2022-10-22T03:41:53;19.00;;;13.13;;
8312;SDS011;4194;43.408;24.626;2022-10-22T03:44:20;19.50;;;13.33;;
8312;SDS011;4194;43.408;24.626;2022-10-22T03:46:46;23.67;;;13.50;;
8312;SDS011;4194;43.408;24.626;2022-10-22T03:49:12;18.33;;;12.97;;
8312;SDS011;4194;43.408;24.626;2022-10-22T03:51:38;14.97;;;12.00;;
8312;SDS011;4194;43.408;24.626;2022-10-22T03:54:04;14.97;;;10.93;;
8312;SDS011;4194;43.408;24.626;2022-10-22T03:56:30;14.57;;;11.00;;
8312;SDS011;4194;43.408;24.626;2022-10-22T03:58:56;15.63;;;11.27;;
8312;SDS011;4194;43.408;24.626;2022-10-22T04:01:23;18.67;;;10.60;;
8312;SDS011;4194;43.408;24.626;2022-10-22T04:03:49;14.07;;;10.30;;
8312;SDS011;4194;43.408;24.626;2022-10-22T04:06:15;15.63;;;11.37;;
8312;SDS011;4194;43.408;24.626;2022-10-22T04:08:42;14.60;;;10.07;;
8312;SDS011;4194;43.408;24.626;2022-10-22T04:11:09;13.00;;;9.97;;
8312;SDS011;4194;43.408;24.626;2022-10-22T04:13:35;13.07;;;9.60;;
8312;SDS011;4194;43.408;24.626;2022-10-22T04:16:14;16.27;;;10.33;;
8312;SDS011;4194;43.408;24.626;2022-10-22T04:18:44;14.43;;;10.57;;
8312;SDS011;4194;43.408;24.626;2022-10-22T04:21:12;15.13;;;10.00;;
8312;SDS011;4194;43.408;24.626;2022-10-22T04:23:42;11.40;;;10.03;;
8312;SDS011;4194;43.408;24.626;2022-10-22T04:26:09;14.47;;;10.33;;
8312;SDS011;4194;43.408;24.626;2022-10-22T04:28:35;19.43;;;10.10;;
8312;SDS011;4194;43.408;24.626;2022-10-22T04:31:06;14.80;;;10.47;;
8312;SDS011;4194;43.408;24.626;2022-10-22T04:33:35;12.87;;;10.50;;
8312;SDS011;4194;43.408;24.626;2022-10-22T04:38:59;16.47;;;10.27;;
8312;SDS011;4194;43.408;24.626;2022-10-22T04:41:26;15.97;;;10.23;;
8312;SDS011;4194;43.408;24.626;2022-10-22T04:43:54;14.10;;;9.07;;
8312;SDS011;4194;43.408;24.626;2022-10-22T04:46:20;14.07;;;10.57;;
8312;SDS011;4194;43.408;24.626;2022-10-22T04:48:46;14.50;;;9.90;;
8312;SDS011;4194;43.408;24.626;2022-10-22T04:51:13;12.00;;;10.00;;
8312;SDS011;4194;43.408;24.626;2022-10-22T04:53:41;18.33;;;10.57;;
8312;SDS011;4194;43.408;24.626;2022-10-22T04:56:08;18.27;;;11.07;;
8312;SDS011;4194;43.408;24.626;2022-10-22T04:58:37;18.90;;;9.97;;
8312;SDS011;4194;43.408;24.626;2022-10-22T05:03:39;19.83;;;11.47;;
8312;SDS011;4194;43.408;24.626;2022-10-22T05:06:06;13.77;;;10.10;;
8312;SDS011;4194;43.408;24.626;2022-10-22T05:08:32;14.43;;;10.80;;
8312;SDS011;4194;43.408;24.626;2022-10-22T05:10:58;13.40;;;10.73;;
8312;SDS011;4194;43.408;24.626;2022-10-22T05:13:24;15.60;;;10.33;;
8312;SDS011;4194;43.408;24.626;2022-10-22T05:15:50;20.80;;;11.27;;
8312;SDS011;4194;43.408;24.626;2022-10-22T05:18:16;22.83;;;13.13;;
8312;SDS011;4194;43.408;24.626;2022-10-22T05:20:42;18.70;;;12.13;;
8312;SDS011;4194;43.408;24.626;2022-10-22T05:23:07;24.93;;;12.87;;
8312;SDS011;4194;43.408;24.626;2022-10-22T05:25:37;20.17;;;12.90;;
8312;SDS011;4194;43.408;24.626;2022-10-22T05:28:03;19.47;;;12.53;;
8312;SDS011;4194;43.408;24.626;2022-10-22T05:30:29;23.63;;;12.17;;
8312;SDS011;4194;43.408;24.626;2022-10-22T05:32:55;14.30;;;11.50;;
8312;SDS011;4194;43.408;24.626;2022-10-22T05:35:20;24.37;;;12.73;;
8312;SDS011;4194;43.408;24.626;2022-10-22T05:37:46;16.23;;;12.57;;
8312;SDS011;4194;43.408;24.626;2022-10-22T05:40:11;18.83;;;11.73;;
8312;SDS011;4194;43.408;24.626;2022-10-22T05:42:37;25.13;;;11.87;;
8312;SDS011;4194;43.408;24.626;2022-10-22T05:45:03;34.50;;;24.17;;
8312;SDS011;4194;43.408;24.626;2022-10-22T05:47:29;35.23;;;17.17;;
8312;SDS011;4194;43.408;24.626;2022-10-22T05:49:55;20.57;;;13.73;;
8312;SDS011;4194;43.408;24.626;2022-10-22T05:52:23;19.47;;;13.70;;
8312;SDS011;4194;43.408;24.626;2022-10-22T05:54:49;20.93;;;13.07;;
8312;SDS011;4194;43.408;24.626;2022-10-22T05:57:15;20.27;;;14.17;;
8312;SDS011;4194;43.408;24.626;2022-10-22T05:59:41;20.77;;;12.23;;
8312;SDS011;4194;43.408;24.626;2022-10-22T06:02:09;20.53;;;13.83;;
8312;SDS011;4194;43.408;24.626;2022-10-22T06:04:35;25.80;;;13.52;;
8312;SDS011;4194;43.408;24.626;2022-10-22T06:07:00;21.27;;;14.67;;
8312;SDS011;4194;43.408;24.626;2022-10-22T06:09:30;23.13;;;15.53;;
8312;SDS011;4194;43.408;24.626;2022-10-22T06:12:00;22.20;;;14.17;;
8312;SDS011;4194;43.408;24.626;2022-10-22T06:14:27;20.73;;;14.87;;
8312;SDS011;4194;43.408;24.626;2022-10-22T06:16:53;24.00;;;18.17;;
8312;SDS011;4194;43.408;24.626;2022-10-22T06:19:20;24.60;;;17.27;;
8312;SDS011;4194;43.408;24.626;2022-10-22T06:21:47;23.10;;;16.17;;
8312;SDS011;4194;43.408;24.626;2022-10-22T06:24:13;22.27;;;14.97;;
8312;SDS011;4194;43.408;24.626;2022-10-22T06:26:40;21.47;;;13.13;;
8312;SDS011;4194;43.408;24.626;2022-10-22T06:29:06;20.63;;;11.13;;
8312;SDS011;4194;43.408;24.626;2022-10-22T06:31:32;15.03;;;12.40;;
8312;SDS011;4194;43.408;24.626;2022-10-22T06:34:01;17.27;;;12.57;;
8312;SDS011;4194;43.408;24.626;2022-10-22T06:36:31;20.03;;;13.13;;
8312;SDS011;4194;43.408;24.626;2022-10-22T06:38:57;16.67;;;12.37;;
8312;SDS011;4194;43.408;24.626;2022-10-22T06:41:23;18.70;;;12.40;;
8312;SDS011;4194;43.408;24.626;2022-10-22T06:43:49;16.13;;;12.20;;
8312;SDS011;4194;43.408;24.626;2022-10-22T06:46:16;17.50;;;12.07;;
8312;SDS011;4194;43.408;24.626;2022-10-22T06:48:46;15.20;;;11.10;;
8312;SDS011;4194;43.408;24.626;2022-10-22T06:51:16;21.37;;;12.27;;
8312;SDS011;4194;43.408;24.626;2022-10-22T06:53:43;21.03;;;12.40;;
8312;SDS011;4194;43.408;24.626;2022-10-22T06:56:10;17.27;;;11.63;;
8312;SDS011;4194;43.408;24.626;2022-10-22T06:58:38;15.60;;;11.97;;
8312;SDS011;4194;43.408;24.626;2022-10-22T07:01:05;16.03;;;10.83;;
8312;SDS011;4194;43.408;24.626;2022-10-22T07:03:32;21.10;;;12.23;;
8312;SDS011;4194;43.408;24.626;2022-10-22T07:06:02;21.10;;;13.10;;
8312;SDS011;4194;43.408;24.626;2022-10-22T07:08:30;19.47;;;12.27;;
8312;SDS011;4194;43.408;24.626;2022-10-22T07:11:04;22.87;;;13.43;;
8312;SDS011;4194;43.408;24.626;2022-10-22T07:13:34;20.40;;;13.10;;
8312;SDS011;4194;43.408;24.626;2022-10-22T07:16:00;14.73;;;12.00;;
8312;SDS011;4194;43.408;24.626;2022-10-22T07:18:26;19.63;;;11.63;;
8312;SDS011;4194;43.408;24.626;2022-10-22T07:20:52;14.23;;;10.40;;
8312;SDS011;4194;43.408;24.626;2022-10-22T07:23:18;13.03;;;9.97;;
8312;SDS011;4194;43.408;24.626;2022-10-22T07:25:43;15.90;;;10.73;;
8312;SDS011;4194;43.408;24.626;2022-10-22T07:28:09;15.67;;;10.07;;
8312;SDS011;4194;43.408;24.626;2022-10-22T07:30:35;17.77;;;10.50;;
8312;SDS011;4194;43.408;24.626;2022-10-22T07:33:02;16.80;;;9.77;;
8312;SDS011;4194;43.408;24.626;2022-10-22T07:35:28;17.43;;;10.40;;
8312;SDS011;4194;43.408;24.626;2022-10-22T07:37:54;16.93;;;9.57;;
8312;SDS011;4194;43.408;24.626;2022-10-22T07:40:20;18.17;;;9.97;;
8312;SDS011;4194;43.408;24.626;2022-10-22T07:42:46;16.47;;;8.97;;
8312;SDS011;4194;43.408;24.626;2022-10-22T07:45:12;14.70;;;9.87;;
8312;SDS011;4194;43.408;24.626;2022-10-22T07:47:37;15.27;;;10.23;;
8312;SDS011;4194;43.408;24.626;2022-10-22T07:50:04;21.60;;;10.27;;
8312;SDS011;4194;43.408;24.626;2022-10-22T07:52:31;14.90;;;11.10;;
8312;SDS011;4194;43.408;24.626;2022-10-22T07:54:57;14.83;;;10.33;;
8312;SDS011;4194;43.408;24.626;2022-10-22T07:57:22;20.80;;;10.07;;
8312;SDS011;4194;43.408;24.626;2022-10-22T07:59:48;17.37;;;11.07;;
8312;SDS011;4194;43.408;24.626;2022-10-22T08:02:14;19.50;;;10.20;;
8312;SDS011;4194;43.408;24.626;2022-10-22T08:04:41;17.67;;;10.60;;
8312;SDS011;4194;43.408;24.626;2022-10-22T08:07:07;18.47;;;9.63;;
8312;SDS011;4194;43.408;24.626;2022-10-22T08:09:33;14.07;;;9.37;;
8312;SDS011;4194;43.408;24.626;2022-10-22T08:11:58;14.23;;;9.87;;
8312;SDS011;4194;43.408;24.626;2022-10-22T08:14:24;17.87;;;10.40;;
8312;SDS011;4194;43.408;24.626;2022-10-22T08:16:50;19.03;;;9.80;;
8312;SDS011;4194;43.408;24.626;2022-10-22T08:19:15;20.03;;;9.77;;
8312;SDS011;4194;43.408;24.626;2022-10-22T08:21:43;15.87;;;9.80;;
8312;SDS011;4194;43.408;24.626;2022-10-22T08:24:10;14.13;;;9.67;;
8312;SDS011;4194;43.408;24.626;2022-10-22T08:26:36;17.47;;;9.20;;
8312;SDS011;4194;43.408;24.626;2022-10-22T08:29:02;13.97;;;9.10;;
8312;SDS011;4194;43.408;24.626;2022-10-22T08:31:28;12.80;;;9.17;;
8312;SDS011;4194;43.408;24.626;2022-10-22T08:33:53;13.57;;;9.60;;
8312;SDS011;4194;43.408;24.626;2022-10-22T08:36:19;13.73;;;9.40;;
8312;SDS011;4194;43.408;24.626;2022-10-22T08:38:45;20.87;;;10.27;;
8312;SDS011;4194;43.408;24.626;2022-10-22T08:41:12;15.63;;;9.63;;
8312;SDS011;4194;43.408;24.626;2022-10-22T08:46:37;21.80;;;9.87;;
8312;SDS011;4194;43.408;24.626;2022-10-22T08:49:20;14.80;;;9.90;;
8312;SDS011;4194;43.408;24.626;2022-10-22T08:51:51;13.73;;;9.27;;
8312;SDS011;4194;43.408;24.626;2022-10-22T09:06:11;19.33;;;10.90;;
8312;SDS011;4194;43.408;24.626;2022-10-22T09:08:46;17.90;;;10.90;;
8312;SDS011;4194;43.408;24.626;2022-10-22T09:11:19;17.33;;;10.43;;
8312;SDS011;4194;43.408;24.626;2022-10-22T09:13:47;16.87;;;10.37;;
8312;SDS011;4194;43.408;24.626;2022-10-22T09:16:18;17.90;;;9.73;;
8312;SDS011;4194;43.408;24.626;2022-10-22T09:22:33;15.17;;;9.73;;
8312;SDS011;4194;43.408;24.626;2022-10-22T09:24:46;24.13;;;9.83;;
8312;SDS011;4194;43.408;24.626;2022-10-22T09:27:14;20.23;;;9.80;;
8312;SDS011;4194;43.408;24.626;2022-10-22T09:33:22;15.83;;;9.87;;
8312;SDS011;4194;43.408;24.626;2022-10-22T09:35:51;23.40;;;10.10;;
8312;SDS011;4194;43.408;24.626;2022-10-22T09:38:20;14.60;;;9.43;;
8312;SDS011;4194;43.408;24.626;2022-10-22T09:40:51;16.13;;;10.17;;
8312;SDS011;4194;43.408;24.626;2022-10-22T09:43:18;21.73;;;10.47;;
8312;SDS011;4194;43.408;24.626;2022-10-22T09:45:45;18.90;;;10.93;;
8312;SDS011;4194;43.408;24.626;2022-10-22T09:48:17;20.73;;;11.10;;
8312;SDS011;4194;43.408;24.626;2022-10-22T09:50:54;18.00;;;11.47;;
8312;SDS011;4194;43.408;24.626;2022-10-22T09:53:36;20.93;;;10.30;;
8312;SDS011;4194;43.408;24.626;2022-10-22T09:56:16;15.47;;;10.03;;
8312;SDS011;4194;43.408;24.626;2022-10-22T09:58:48;17.70;;;10.10;;
8312;SDS011;4194;43.408;24.626;2022-10-22T10:01:19;12.17;;;9.90;;
8312;SDS011;4194;43.408;24.626;2022-10-22T10:03:48;16.40;;;10.87;;
8312;SDS011;4194;43.408;24.626;2022-10-22T10:06:21;18.87;;;10.90;;
8312;SDS011;4194;43.408;24.626;2022-10-22T10:08:48;20.17;;;11.07;;
8312;SDS011;4194;43.408;24.626;2022-10-22T10:17:11;23.67;;;11.00;;
8312;SDS011;4194;43.408;24.626;2022-10-22T10:20:02;19.67;;;11.40;;
8312;SDS011;4194;43.408;24.626;2022-10-22T10:25:51;15.53;;;10.67;;
8312;SDS011;4194;43.408;24.626;2022-10-22T10:28:30;23.00;;;11.93;;
8312;SDS011;4194;43.408;24.626;2022-10-22T10:36:16;20.67;;;12.37;;
8312;SDS011;4194;43.408;24.626;2022-10-22T10:39:12;21.43;;;13.73;;
8312;SDS011;4194;43.408;24.626;2022-10-22T11:04:33;32.60;;;17.93;;
8312;SDS011;4194;43.408;24.626;2022-10-22T11:07:15;28.13;;;17.00;;
8312;SDS011;4194;43.408;24.626;2022-10-22T11:09:51;33.07;;;18.03;;
8312;SDS011;4194;43.408;24.626;2022-10-22T11:12:25;29.30;;;17.93;;
8312;SDS011;4194;43.408;24.626;2022-10-22T11:17:40;27.23;;;17.77;;
8312;SDS011;4194;43.408;24.626;2022-10-22T11:22:56;28.70;;;19.20;;
8312;SDS011;4194;43.408;24.626;2022-10-22T11:25:28;28.87;;;18.17;;
8312;SDS011;4194;43.408;24.626;2022-10-22T11:28:40;29.27;;;17.87;;
8312;SDS011;4194;43.408;24.626;2022-10-22T11:30:56;29.93;;;16.60;;
8312;SDS011;4194;43.408;24.626;2022-10-22T11:33:35;27.70;;;16.37;;
8312;SDS011;4194;43.408;24.626;2022-10-22T11:36:08;29.00;;;16.07;;
8312;SDS011;4194;43.408;24.626;2022-10-22T11:38:36;25.00;;;15.63;;
8312;SDS011;4194;43.408;24.626;2022-10-22T11:41:10;24.13;;;14.97;;
8312;SDS011;4194;43.408;24.626;2022-10-22T11:43:55;27.20;;;15.13;;
8312;SDS011;4194;43.408;24.626;2022-10-22T11:46:33;22.03;;;14.33;;
8312;SDS011;4194;43.408;24.626;2022-10-22T11:51:39;24.57;;;14.67;;
8312;SDS011;4194;43.408;24.626;2022-10-22T11:54:28;20.70;;;13.30;;
8312;SDS011;4194;43.408;24.626;2022-10-22T11:59:43;20.97;;;12.93;;
8312;SDS011;4194;43.408;24.626;2022-10-22T12:04:54;20.37;;;11.37;;
8312;SDS011;4194;43.408;24.626;2022-10-22T12:07:56;21.83;;;11.40;;
8312;SDS011;4194;43.408;24.626;2022-10-22T12:11:13;15.20;;;9.97;;
8312;SDS011;4194;43.408;24.626;2022-10-22T12:14:01;17.30;;;10.60;;
8312;SDS011;4194;43.408;24.626;2022-10-22T12:16:22;19.10;;;10.77;;
8312;SDS011;4194;43.408;24.626;2022-10-22T12:18:52;19.27;;;10.37;;
8312;SDS011;4194;43.408;24.626;2022-10-22T12:21:26;14.83;;;9.50;;
8312;SDS011;4194;43.408;24.626;2022-10-22T12:23:52;17.80;;;10.67;;
8312;SDS011;4194;43.408;24.626;2022-10-22T12:26:22;18.37;;;9.87;;
8312;SDS011;4194;43.408;24.626;2022-10-22T12:28:49;14.87;;;9.43;;
8312;SDS011;4194;43.408;24.626;2022-10-22T12:31:16;18.67;;;10.40;;
8312;SDS011;4194;43.408;24.626;2022-10-22T12:33:42;17.47;;;10.23;;
8312;SDS011;4194;43.408;24.626;2022-10-22T12:36:14;14.50;;;9.93;;
8312;SDS011;4194;43.408;24.626;2022-10-22T12:38:44;18.27;;;10.13;;
8312;SDS011;4194;43.408;24.626;2022-10-22T12:41:11;20.10;;;9.97;;
8312;SDS011;4194;43.408;24.626;2022-10-22T12:43:37;18.37;;;10.40;;
8312;SDS011;4194;43.408;24.626;2022-10-22T12:46:11;18.30;;;10.23;;
8312;SDS011;4194;43.408;24.626;2022-10-22T12:48:41;17.23;;;10.70;;
8312;SDS011;4194;43.408;24.626;2022-10-22T12:51:10;16.77;;;10.07;;
8312;SDS011;4194;43.408;24.626;2022-10-22T12:53:44;15.50;;;9.97;;
8312;SDS011;4194;43.408;24.626;2022-10-22T12:56:22;18.80;;;10.50;;
8312;SDS011;4194;43.408;24.626;2022-10-22T12:58:52;15.83;;;10.50;;
8312;SDS011;4194;43.408;24.626;2022-10-22T13:01:24;15.67;;;9.63;;
8312;SDS011;4194;43.408;24.626;2022-10-22T13:04:04;20.97;;;10.00;;
8312;SDS011;4194;43.408;24.626;2022-10-22T13:07:36;14.93;;;9.52;;
8312;SDS011;4194;43.408;24.626;2022-10-22T13:09:40;13.73;;;9.20;;
8312;SDS011;4194;43.408;24.626;2022-10-22T13:12:09;13.00;;;9.45;;
8312;SDS011;4194;43.408;24.626;2022-10-22T13:14:40;13.77;;;9.95;;
8312;SDS011;4194;43.408;24.626;2022-10-22T13:17:15;11.90;;;9.13;;
8312;SDS011;4194;43.408;24.626;2022-10-22T13:27:43;16.65;;;9.80;;
8312;SDS011;4194;43.408;24.626;2022-10-22T13:30:20;12.73;;;8.68;;
8312;SDS011;4194;43.408;24.626;2022-10-22T13:32:48;18.03;;;10.43;;
8312;SDS011;4194;43.408;24.626;2022-10-22T13:35:23;16.93;;;11.13;;
8312;SDS011;4194;43.408;24.626;2022-10-22T13:37:52;27.40;;;11.33;;
8312;SDS011;4194;43.408;24.626;2022-10-22T13:40:18;15.50;;;11.60;;
8312;SDS011;4194;43.408;24.626;2022-10-22T13:42:44;16.73;;;11.03;;
8312;SDS011;4194;43.408;24.626;2022-10-22T13:45:10;17.27;;;11.87;;
8312;SDS011;4194;43.408;24.626;2022-10-22T13:47:37;19.73;;;12.57;;
8312;SDS011;4194;43.408;24.626;2022-10-22T13:50:06;20.07;;;12.60;;
8312;SDS011;4194;43.408;24.626;2022-10-22T13:55:12;19.70;;;11.57;;
8312;SDS011;4194;43.408;24.626;2022-10-22T13:57:46;26.00;;;11.57;;
8312;SDS011;4194;43.408;24.626;2022-10-22T14:00:21;21.47;;;12.63;;
8312;SDS011;4194;43.408;24.626;2022-10-22T14:02:48;18.00;;;11.07;;
8312;SDS011;4194;43.408;24.626;2022-10-22T14:05:18;21.27;;;11.77;;
8312;SDS011;4194;43.408;24.626;2022-10-22T14:07:44;17.93;;;11.23;;
8312;SDS011;4194;43.408;24.626;2022-10-22T14:10:28;19.23;;;11.23;;
8312;SDS011;4194;43.408;24.626;2022-10-22T14:12:53;17.80;;;11.23;;
8312;SDS011;4194;43.408;24.626;2022-10-22T14:15:20;19.70;;;11.43;;
8312;SDS011;4194;43.408;24.626;2022-10-22T14:17:54;21.97;;;11.23;;
8312;SDS011;4194;43.408;24.626;2022-10-22T14:20:22;16.27;;;9.97;;
8312;SDS011;4194;43.408;24.626;2022-10-22T14:22:51;15.60;;;9.83;;
8312;SDS011;4194;43.408;24.626;2022-10-22T14:25:22;21.83;;;11.50;;
8312;SDS011;4194;43.408;24.626;2022-10-22T14:27:49;17.27;;;11.43;;
8312;SDS011;4194;43.408;24.626;2022-10-22T14:30:16;19.60;;;12.07;;
8312;SDS011;4194;43.408;24.626;2022-10-22T14:32:50;17.73;;;12.03;;
8312;SDS011;4194;43.408;24.626;2022-10-22T14:35:18;21.43;;;12.23;;
8312;SDS011;4194;43.408;24.626;2022-10-22T14:37:46;23.00;;;12.90;;
8312;SDS011;4194;43.408;24.626;2022-10-22T14:40:13;17.30;;;11.47;;
8312;SDS011;4194;43.408;24.626;2022-10-22T14:42:42;24.40;;;12.27;;
8312;SDS011;4194;43.408;24.626;2022-10-22T14:45:19;24.17;;;12.23;;
8312;SDS011;4194;43.408;24.626;2022-10-22T14:47:47;21.58;;;13.98;;
8312;SDS011;4194;43.408;24.626;2022-10-22T14:50:14;31.47;;;14.03;;
8312;SDS011;4194;43.408;24.626;2022-10-22T14:52:40;32.23;;;13.83;;
8312;SDS011;4194;43.408;24.626;2022-10-22T14:55:08;40.37;;;14.03;;
8312;SDS011;4194;43.408;24.626;2022-10-22T14:57:34;25.00;;;12.33;;
8312;SDS011;4194;43.408;24.626;2022-10-22T15:00:01;24.73;;;13.93;;
8312;SDS011;4194;43.408;24.626;2022-10-22T15:02:27;26.93;;;14.40;;
8312;SDS011;4194;43.408;24.626;2022-10-22T15:04:53;23.97;;;14.93;;
8312;SDS011;4194;43.408;24.626;2022-10-22T15:07:19;27.33;;;15.70;;
8312;SDS011;4194;43.408;24.626;2022-10-22T15:09:45;26.47;;;15.43;;
8312;SDS011;4194;43.408;24.626;2022-10-22T15:12:11;23.97;;;13.87;;
8312;SDS011;4194;43.408;24.626;2022-10-22T15:14:37;24.67;;;14.17;;
8312;SDS011;4194;43.408;24.626;2022-10-22T15:17:02;31.77;;;15.53;;
8312;SDS011;4194;43.408;24.626;2022-10-22T15:19:28;27.77;;;15.00;;
8312;SDS011;4194;43.408;24.626;2022-10-22T15:21:54;30.53;;;15.27;;
8312;SDS011;4194;43.408;24.626;2022-10-22T15:24:20;28.90;;;15.33;;
8312;SDS011;4194;43.408;24.626;2022-10-22T15:26:45;19.40;;;14.30;;
8312;SDS011;4194;43.408;24.626;2022-10-22T15:29:11;24.23;;;15.77;;
8312;SDS011;4194;43.408;24.626;2022-10-22T15:31:44;35.77;;;15.27;;
8312;SDS011;4194;43.408;24.626;2022-10-22T15:34:17;31.90;;;15.60;;
8312;SDS011;4194;43.408;24.626;2022-10-22T15:36:47;34.13;;;16.37;;
8312;SDS011;4194;43.408;24.626;2022-10-22T15:39:13;26.47;;;15.63;;
8312;SDS011;4194;43.408;24.626;2022-10-22T15:41:39;28.60;;;15.63;;
8312;SDS011;4194;43.408;24.626;2022-10-22T15:44:05;29.70;;;15.30;;
8312;SDS011;4194;43.408;24.626;2022-10-22T15:46:32;30.63;;;17.00;;
8312;SDS011;4194;43.408;24.626;2022-10-22T15:48:58;31.37;;;16.80;;
8312;SDS011;4194;43.408;24.626;2022-10-22T15:51:24;24.57;;;16.50;;
8312;SDS011;4194;43.408;24.626;2022-10-22T15:53:51;32.53;;;17.07;;
8312;SDS011;4194;43.408;24.626;2022-10-22T15:56:18;31.37;;;17.47;;
8312;SDS011;4194;43.408;24.626;2022-10-22T15:58:44;38.90;;;17.27;;
8312;SDS011;4194;43.408;24.626;2022-10-22T16:01:12;32.37;;;16.90;;
8312;SDS011;4194;43.408;24.626;2022-10-22T16:03:39;34.43;;;19.63;;
8312;SDS011;4194;43.408;24.626;2022-10-22T16:06:06;36.83;;;20.53;;
8312;SDS011;4194;43.408;24.626;2022-10-22T16:08:33;31.50;;;21.20;;
8312;SDS011;4194;43.408;24.626;2022-10-22T16:10:59;46.03;;;22.93;;
8312;SDS011;4194;43.408;24.626;2022-10-22T16:13:25;40.53;;;21.93;;
8312;SDS011;4194;43.408;24.626;2022-10-22T16:15:51;40.53;;;23.87;;
8312;SDS011;4194;43.408;24.626;2022-10-22T16:18:18;41.97;;;25.80;;
8312;SDS011;4194;43.408;24.626;2022-10-22T16:20:44;41.60;;;25.33;;
8312;SDS011;4194;43.408;24.626;2022-10-22T16:23:10;41.90;;;25.33;;
8312;SDS011;4194;43.408;24.626;2022-10-22T16:25:40;43.10;;;25.93;;
8312;SDS011;4194;43.408;24.626;2022-10-22T16:28:07;47.47;;;27.23;;
8312;SDS011;4194;43.408;24.626;2022-10-22T16:30:34;43.20;;;23.50;;
8312;SDS011;4194;43.408;24.626;2022-10-22T16:33:01;39.60;;;25.17;;
8312;SDS011;4194;43.408;24.626;2022-10-22T16:35:28;43.67;;;26.83;;
8312;SDS011;4194;43.408;24.626;2022-10-22T16:37:55;45.60;;;26.73;;
8312;SDS011;4194;43.408;24.626;2022-10-22T16:40:21;50.57;;;28.23;;
8312;SDS011;4194;43.408;24.626;2022-10-22T16:42:47;52.53;;;29.03;;
8312;SDS011;4194;43.408;24.626;2022-10-22T16:45:13;48.10;;;29.40;;